Portada
METAR-TAF:

METAR-TAF

Aeroports :

Mataram, Indonèsia

latitud: 08-45-29S, longitud: 116-16-35E, altitud: 97 m

Observació

L'informe es va fer fa 25 minuts, a les 10:30 UTC
Vent 6 kt del Sud
Temperatura 24°C
Humitat 78%
Pressió 1010 hPa
Visibilitat: 8000 m
Escasses núvols a una alçada de 1600 ft

METAR: WADL 161030Z 17006KT 8000 FEW016 24/20 Q1010 NOSIG

Hora: 17:55 (10:55 UTC)

Pronòstic

L'informe es va fer fa 5 hores i 55 minuts, a les 05:00 UTC
Pronòstic vàlid del 16 a les 06 UTC al 17 a les 06 UTC
Vent 12 kt del Sud-Est
Visibilitat: 8000 m
Núvols disperses a una alçada de 1600 ft

TAF: WADL 160500Z 1606/1706 14012KT 8000 SCT016

Observacions i pronòstics meteorològics de més de 4000 aeroports (METAR i TAF).

Les estacions disponibles són els punts grocs i vermells al mapa.

Posi el ratolí al punt desitjat per veure el nom de l'estació.

Feu clic per veure les observacions i els pronòstics meteorològics.

Per canviar el mapa: feu clic els botons verds amb una creu de color negre per apropar; al botó verd amb un guió per allunyar la imatge; o en les fletxes verdes per a mapes adjacents.


METAR-TAF: